Time;durP1;ratioP1;P1;durP2;ratioP2;P2;SDS_P1;SDS_P2;PMS_P1;PMS_P2;Temp;Humidity;BMP_temperature;BMP_pressure;BME280_temperature;BME280_humidity;BME280_pressure;Samples;Min_cycle;Max_cycle;Signal;HPM_P1;HPM_P2
2022/07/30 00:02:40;;;;;;;10.70;5.50;;;21.50;93.60;;;;;;5016677;28;20488;-89
2022/07/30 00:05:09;;;;;;;11.93;5.47;;;21.50;93.80;;;;;;5034331;28;20466;-89
2022/07/30 00:07:35;;;;;;;11.30;5.55;;;21.40;93.90;;;;;;5016295;28;20018;-88
2022/07/30 00:10:03;;;;;;;10.95;4.80;;;21.40;94.10;;;;;;5001227;28;20030;-89
2022/07/30 00:12:31;;;;;;;8.65;5.32;;;21.40;94.30;;;;;;4981805;28;20027;-88
2022/07/30 00:14:57;;;;;;;16.08;6.60;;;21.40;94.40;;;;;;4998468;28;20101;-88
2022/07/30 00:17:23;;;;;;;14.95;5.30;;;21.30;94.50;;;;;;5001809;28;20057;-90
2022/07/30 00:19:49;;;;;;;12.15;5.07;;;21.30;94.60;;;;;;5020166;28;20021;-89
2022/07/30 00:22:17;;;;;;;11.10;4.78;;;21.30;94.80;;;;;;5021809;28;20029;-89
2022/07/30 00:24:43;;;;;;;11.25;5.53;;;21.30;95.00;;;;;;5016571;28;20030;-89
2022/07/30 00:27:08;;;;;;;10.27;5.00;;;21.20;95.10;;;;;;5032641;28;20029;-89
2022/07/30 00:29:36;;;;;;;11.70;5.68;;;21.20;95.30;;;;;;5034849;28;20112;-89
2022/07/30 00:32:02;;;;;;;12.48;5.43;;;21.20;95.40;;;;;;5036044;28;20029;-89
2022/07/30 00:34:28;;;;;;;8.38;4.70;;;21.20;95.60;;;;;;5036077;28;20501;-89
2022/07/30 00:36:54;;;;;;;9.52;5.03;;;21.20;95.80;;;;;;5035733;28;20034;-89
2022/07/30 00:39:19;;;;;;;11.15;5.50;;;21.10;95.90;;;;;;5036681;28;20025;-89
2022/07/30 00:41:59;;;;;;;9.07;5.10;;;21.10;96.00;;;;;;5028735;28;20049;-88
2022/07/30 00:44:25;;;;;;;12.48;5.88;;;21.10;96.20;;;;;;5001035;28;20061;-89
2022/07/30 00:46:54;;;;;;;10.20;5.57;;;21.10;96.40;;;;;;5019115;28;20034;-89
2022/07/30 00:49:20;;;;;;;11.20;5.63;;;21.00;96.50;;;;;;5006604;28;20033;-89
2022/07/30 00:51:46;;;;;;;8.07;4.78;;;21.00;96.60;;;;;;4999833;28;20033;-89
2022/07/30 00:54:14;;;;;;;10.73;5.57;;;21.00;96.80;;;;;;4995607;28;20065;-88
2022/07/30 00:56:40;;;;;;;10.55;5.05;;;21.00;96.90;;;;;;5026589;28;20041;-89
2022/07/30 00:59:05;;;;;;;8.48;4.50;;;21.00;97.00;;;;;;4995915;28;20054;-90
2022/07/30 01:01:32;;;;;;;10.25;5.00;;;20.90;97.10;;;;;;4998766;28;20455;-89
2022/07/30 01:03:58;;;;;;;10.27;4.97;;;20.90;97.10;;;;;;4999653;28;20030;-89
2022/07/30 01:06:24;;;;;;;16.42;5.22;;;20.90;97.20;;;;;;5016038;28;20116;-89
2022/07/30 01:09:03;;;;;;;;;;;;;;;;;;;;;
2022/07/30 01:11:36;;;;;;;10.10;5.30;;;20.80;97.40;;;;;;5036024;28;20032;-89
2022/07/30 01:14:04;;;;;;;10.68;5.50;;;20.80;97.50;;;;;;5033147;28;20025;-89
2022/07/30 01:16:30;;;;;;;11.40;4.93;;;20.80;97.60;;;;;;4990695;28;20041;-89
2022/07/30 01:21:47;;;;;;;9.93;5.80;;;20.80;97.80;;;;;;5016827;28;20045;-89
2022/07/30 01:24:16;;;;;;;;;;;20.80;97.90;;;;;;5016026;28;20038;-90
2022/07/30 01:26:42;;;;;;;11.00;5.60;;;20.70;98.00;;;;;;5015553;28;19906;-89
2022/07/30 01:32:34;;;;;;;10.30;4.75;;;20.70;98.10;;;;;;5016171;28;20061;-89
2022/07/30 01:38:23;;;;;;;11.52;4.60;;;20.60;98.30;;;;;;5013870;28;20056;-89
2022/07/30 01:40:55;;;;;;;11.40;5.40;;;20.60;98.30;;;;;;5014917;28;20034;-89
2022/07/30 01:43:23;;;;;;;8.32;4.35;;;20.60;98.30;;;;;;5015472;28;20476;-90
2022/07/30 01:45:50;;;;;;;9.02;4.65;;;20.50;98.30;;;;;;5031584;28;20113;-90
2022/07/30 01:48:22;;;;;;;11.32;4.95;;;20.50;98.40;;;;;;5014966;28;20485;-89
2022/07/30 01:50:51;;;;;;;12.05;5.78;;;20.50;98.40;;;;;;5015162;28;20033;-90
2022/07/30 01:53:27;;;;;;;8.32;5.30;;;20.50;98.50;;;;;;5015712;28;20033;-90
2022/07/30 01:55:54;;;;;;;8.00;4.57;;;20.40;98.50;;;;;;5016191;28;20109;-90
2022/07/30 01:58:23;;;;;;;10.05;5.32;;;20.40;98.60;;;;;;5015006;28;20022;-90
2022/07/30 02:00:50;;;;;;;8.75;5.00;;;20.40;98.70;;;;;;4998186;28;20466;-89
2022/07/30 02:03:16;;;;;;;9.77;5.05;;;20.40;98.90;;;;;;4997993;28;20029;-88
2022/07/30 02:05:49;;;;;;;10.15;5.32;;;20.40;99.00;;;;;;4998240;28;20398;-89
2022/07/30 02:14:40;;;;;;;10.88;6.05;;;20.30;99.30;;;;;;4989838;28;20497;-90
2022/07/30 02:17:08;;;;;;;10.18;5.22;;;20.30;99.50;;;;;;4998136;28;20033;-90
2022/07/30 02:22:45;;;;;;;11.63;6.10;;;20.30;99.70;;;;;;5015085;28;20041;-90
2022/07/30 02:25:26;;;;;;;10.25;6.53;;;20.30;99.90;;;;;;5001095;28;20088;-89
2022/07/30 02:30:51;;;;;;;12.93;6.47;;;20.20;99.90;;;;;;5016886;28;20044;-89
2022/07/30 02:33:21;;;;;;;12.07;5.90;;;20.30;99.90;;;;;;5011951;28;20163;-90
2022/07/30 02:35:48;;;;;;;12.10;6.10;;;20.20;99.90;;;;;;5018635;28;20073;-89
2022/07/30 02:38:16;;;;;;;13.13;5.95;;;20.20;99.90;;;;;;5018351;28;20058;-90
2022/07/30 02:40:43;;;;;;;15.60;6.20;;;20.20;99.90;;;;;;5008942;28;20109;-89
2022/07/30 02:43:16;;;;;;;11.30;6.22;;;20.20;99.90;;;;;;4993474;28;20025;-89
2022/07/30 02:45:49;;;;;;;23.58;6.75;;;20.20;99.90;;;;;;5020426;28;20022;-91
2022/07/30 02:51:37;;;;;;;13.93;7.55;;;20.20;99.90;;;;;;5015658;28;20048;-89
2022/07/30 02:57:29;;;;;;;11.45;6.22;;;20.20;99.90;;;;;;5015110;28;20024;-90
2022/07/30 02:59:56;;;;;;;9.57;6.03;;;20.20;99.90;;;;;;4997385;28;20022;-90
2022/07/30 03:02:30;;;;;;;13.05;7.25;;;20.20;99.90;;;;;;4997579;28;20026;-91
2022/07/30 03:05:01;;;;;;;12.10;6.53;;;20.10;99.90;;;;;;4998437;28;20058;-90
2022/07/30 03:07:29;;;;;;;10.15;6.90;;;20.10;99.90;;;;;;4997492;28;20549;-90
2022/07/30 03:09:56;;;;;;;12.07;7.47;;;20.10;99.90;;;;;;4990160;28;20066;-89
2022/07/30 03:15:50;;;;;;;12.90;7.95;;;20.10;99.90;;;;;;5015787;28;20037;-89
2022/07/30 03:18:18;;;;;;;10.50;7.38;;;20.10;99.90;;;;;;4998443;28;20030;-91
2022/07/30 03:20:48;;;;;;;13.50;7.80;;;20.10;99.90;;;;;;4992851;28;20045;-89
2022/07/30 03:23:17;;;;;;;14.07;8.17;;;20.00;99.90;;;;;;5016368;28;20036;-89
2022/07/30 03:25:49;;;;;;;12.18;8.10;;;20.00;99.90;;;;;;5001130;28;20084;-90
2022/07/30 03:28:16;;;;;;;11.65;8.00;;;20.00;99.90;;;;;;5001501;28;20049;-90
2022/07/30 03:30:45;;;;;;;10.60;7.60;;;20.00;99.90;;;;;;4984591;28;20486;-91
2022/07/30 03:33:12;;;;;;;11.75;8.45;;;20.00;99.90;;;;;;5001494;28;20022;-88
2022/07/30 03:35:41;;;;;;;14.48;8.20;;;20.00;99.90;;;;;;4999323;28;20172;-91
2022/07/30 03:38:13;;;;;;;10.23;7.82;;;20.00;99.90;;;;;;5016964;28;20049;-91
2022/07/30 03:40:43;;;;;;;9.73;7.38;;;19.90;99.90;;;;;;4997758;28;20022;-90
2022/07/30 03:43:11;;;;;;;10.07;7.15;;;19.90;99.90;;;;;;4979346;28;20469;-89
2022/07/30 03:45:40;;;;;;;12.27;7.25;;;19.90;99.90;;;;;;4981439;28;20027;-90
2022/07/30 03:48:12;;;;;;;11.20;7.30;;;19.90;99.90;;;;;;4981294;28;20042;-89
2022/07/30 03:50:40;;;;;;;13.23;7.25;;;19.90;99.90;;;;;;4981336;28;20032;-89
2022/07/30 03:53:11;;;;;;;11.02;6.95;;;19.80;99.90;;;;;;4980667;28;20030;-90
2022/07/30 03:55:41;;;;;;;10.40;7.43;;;19.80;99.90;;;;;;4981833;28;20304;-90
2022/07/30 03:58:06;;;;;;;13.43;7.10;;;19.80;99.90;;;;;;4981210;28;20027;-90
2022/07/30 04:00:32;;;;;;;11.80;7.07;;;19.80;99.90;;;;;;4981292;28;20030;-89
2022/07/30 04:02:58;;;;;;;12.23;6.53;;;19.80;99.90;;;;;;4981289;28;20026;-90
2022/07/30 04:05:24;;;;;;;12.68;7.22;;;19.80;99.90;;;;;;4985480;28;20084;-89
2022/07/30 04:07:49;;;;;;;12.98;7.55;;;19.70;99.90;;;;;;5000528;28;20488;-89
2022/07/30 04:10:15;;;;;;;14.32;7.30;;;19.70;99.90;;;;;;5000178;28;20513;-90
2022/07/30 04:12:42;;;;;;;11.07;7.07;;;19.70;99.90;;;;;;5017066;28;20112;-91
2022/07/30 04:15:10;;;;;;;10.38;6.78;;;19.70;99.90;;;;;;5000539;28;20021;-89
2022/07/30 04:17:52;;;;;;;11.98;7.13;;;19.70;99.90;;;;;;5016594;28;20093;-91
2022/07/30 04:20:30;;;;;;;12.13;7.53;;;19.70;99.90;;;;;;5003179;28;20077;-89
2022/07/30 04:23:14;;;;;;;13.15;7.40;;;19.70;99.90;;;;;;5017763;28;20022;-89
2022/07/30 04:29:09;;;;;;;15.27;7.70;;;19.70;99.90;;;;;;5018112;28;20102;-91
2022/07/30 04:48:49;;;;;;;13.18;6.47;;;19.60;99.90;;;;;;5016243;28;20030;-91
2022/07/30 04:55:55;;;;;;;9.88;6.22;;;19.50;99.90;;;;;;4976374;28;20034;-91
2022/07/30 05:08:36;;;;;;;13.98;5.85;;;19.40;99.90;;;;;;4978135;28;20027;-89
2022/07/30 05:11:02;;;;;;;12.20;6.68;;;19.40;99.90;;;;;;4976956;28;20070;-92
2022/07/30 05:13:31;;;;;;;10.50;6.47;;;19.40;99.90;;;;;;4976263;28;20030;-91
2022/07/30 05:26:35;;;;;;;8.65;5.20;;;19.30;99.90;;;;;;5020635;28;20045;-89
2022/07/30 05:32:40;;;;;;;12.02;6.65;;;19.20;99.90;;;;;;5017656;28;20025;-89
2022/07/30 05:39:01;;;;;;;8.95;5.40;;;19.20;99.90;;;;;;5018820;28;20060;-90
2022/07/30 05:41:27;;;;;;;10.40;5.68;;;19.20;99.90;;;;;;4980286;28;20467;-90
2022/07/30 05:44:02;;;;;;;14.25;5.93;;;19.20;99.90;;;;;;4979062;28;20034;-90
2022/07/30 05:46:46;;;;;;;13.48;5.78;;;19.20;99.90;;;;;;4981064;28;20022;-90
2022/07/30 05:52:43;;;;;;;11.77;5.70;;;19.20;99.90;;;;;;4997558;28;20033;-90
2022/07/30 05:58:51;;;;;;;12.55;6.43;;;19.10;99.90;;;;;;4996912;28;20025;-89
2022/07/30 06:08:50;;;;;;;12.38;5.80;;;19.10;99.90;;;;;;4997482;28;20077;-90
2022/07/30 06:15:17;;;;;;;9.98;5.78;;;19.10;99.90;;;;;;4997797;28;20037;-90
2022/07/30 06:21:08;;;;;;;9.13;5.70;;;19.10;99.90;;;;;;5000650;28;20081;-90
2022/07/30 06:23:36;;;;;;;8.57;5.25;;;19.20;99.90;;;;;;4989014;28;20022;-90
2022/07/30 06:26:04;;;;;;;12.30;5.25;;;19.20;99.90;;;;;;4997490;28;20034;-90
2022/07/30 06:28:30;;;;;;;11.63;4.57;;;19.30;99.90;;;;;;4980254;28;20027;-89
2022/07/30 06:30:56;;;;;;;9.77;4.63;;;19.30;99.90;;;;;;5002456;28;20007;-90
2022/07/30 06:33:21;;;;;;;9.43;5.15;;;19.30;99.90;;;;;;5000213;28;20014;-90
2022/07/30 06:35:47;;;;;;;9.43;4.88;;;19.40;99.90;;;;;;4983699;28;20370;-90
2022/07/30 06:38:13;;;;;;;10.43;4.75;;;19.40;99.90;;;;;;4993055;28;20046;-89
2022/07/30 06:40:39;;;;;;;11.40;4.63;;;19.50;99.90;;;;;;4991210;28;20077;-89
2022/07/30 06:43:05;;;;;;;8.63;5.00;;;19.50;99.90;;;;;;4981351;28;20069;-89
2022/07/30 06:46:10;;;;;;;13.85;4.93;;;19.60;99.90;;;;;;4997858;28;20025;-90
2022/07/30 06:52:05;;;;;;;9.88;4.30;;;19.60;99.90;;;;;;5015530;28;20417;-90
2022/07/30 06:54:31;;;;;;;7.38;4.50;;;19.70;99.90;;;;;;4997632;28;20041;-90
2022/07/30 06:56:57;;;;;;;8.85;4.75;;;19.70;99.90;;;;;;4981848;28;20034;-89
2022/07/30 06:59:33;;;;;;;10.15;4.45;;;19.80;99.90;;;;;;4997302;28;20026;-89
2022/07/30 07:02:10;;;;;;;10.43;4.13;;;19.80;99.90;;;;;;4972254;28;20363;-89
2022/07/30 07:04:36;;;;;;;8.77;3.63;;;19.90;99.90;;;;;;4997959;28;20394;-89
2022/07/30 07:07:02;;;;;;;8.95;3.70;;;19.90;99.90;;;;;;4998108;28;20082;-90
2022/07/30 07:09:27;;;;;;;7.72;3.38;;;20.00;99.90;;;;;;4997455;28;20463;-89
2022/07/30 07:11:58;;;;;;;7.43;3.65;;;20.00;99.90;;;;;;4997392;28;20144;-90
2022/07/30 07:14:27;;;;;;;7.28;4.15;;;20.10;99.90;;;;;;4982629;28;20045;-90
2022/07/30 07:16:57;;;;;;;8.95;3.33;;;20.20;99.90;;;;;;4985748;28;20029;-90
2022/07/30 07:19:23;;;;;;;7.90;3.00;;;20.20;99.90;;;;;;4964794;28;20518;-89
2022/07/30 07:21:49;;;;;;;8.48;3.00;;;20.30;99.90;;;;;;4978569;28;20037;-90
2022/07/30 07:24:22;;;;;;;6.15;3.10;;;20.40;99.90;;;;;;5010551;28;20038;-90
2022/07/30 07:26:47;;;;;;;8.75;2.92;;;20.50;99.90;;;;;;4981235;28;20537;-91
2022/07/30 07:29:13;;;;;;;7.32;3.08;;;20.50;99.90;;;;;;4994318;28;20084;-90
2022/07/30 07:32:02;;;;;;;8.95;2.80;;;20.60;99.90;;;;;;4963390;28;20138;-90
2022/07/30 07:34:38;;;;;;;7.47;2.70;;;20.60;99.90;;;;;;4978983;28;20026;-91
2022/07/30 07:37:14;;;;;;;7.47;3.05;;;20.70;99.90;;;;;;4998985;28;20026;-89
2022/07/30 07:39:49;;;;;;;7.57;3.17;;;20.70;99.90;;;;;;4999996;28;20396;-92
2022/07/30 07:42:15;;;;;;;8.05;3.00;;;20.80;99.90;;;;;;5013136;28;20085;-90
2022/07/30 07:44:43;;;;;;;7.22;2.60;;;20.90;99.90;;;;;;4994933;28;20034;-90
2022/07/30 07:47:13;;;;;;;6.55;2.70;;;21.00;99.90;;;;;;4981701;28;20018;-90
2022/07/30 07:49:39;;;;;;;11.18;2.88;;;21.00;99.90;;;;;;5014763;28;20033;-91
2022/07/30 07:52:05;;;;;;;6.35;3.17;;;21.10;99.90;;;;;;4996877;28;20026;-83
2022/07/30 07:54:31;;;;;;;5.22;2.42;;;21.20;99.90;;;;;;5011131;28;20096;-82
2022/07/30 07:56:56;;;;;;;5.95;2.35;;;21.20;99.90;;;;;;4993384;28;20033;-82
2022/07/30 07:59:22;;;;;;;6.10;2.67;;;21.30;99.90;;;;;;5010722;28;20026;-82
2022/07/30 08:01:48;;;;;;;6.82;3.13;;;21.40;99.90;;;;;;5005650;28;20038;-89
2022/07/30 08:04:15;;;;;;;6.70;3.05;;;21.50;99.90;;;;;;4979948;28;20042;-91
2022/07/30 08:06:41;;;;;;;9.10;3.20;;;21.50;99.90;;;;;;4988169;28;20466;-92
2022/07/30 08:09:07;;;;;;;6.45;2.72;;;21.60;99.70;;;;;;4982297;28;20058;-92
2022/07/30 08:11:32;;;;;;;7.70;2.67;;;21.70;99.50;;;;;;4992614;28;20081;-91
2022/07/30 08:14:00;;;;;;;7.50;2.70;;;21.70;99.40;;;;;;4971264;28;20034;-90
2022/07/30 08:16:34;;;;;;;5.68;2.25;;;21.80;99.00;;;;;;4955948;28;20019;-94
2022/07/30 08:19:15;;;;;;;8.43;3.13;;;21.80;98.60;;;;;;4978876;28;20019;-92
2022/07/30 08:21:43;;;;;;;9.25;3.15;;;21.90;98.30;;;;;;4981748;28;20062;-95
2022/07/30 08:24:10;;;;;;;4.85;2.53;;;22.00;98.40;;;;;;4966470;28;20038;-94
2022/07/30 08:26:40;;;;;;;6.28;2.80;;;22.00;97.80;;;;;;5000163;28;20076;-95
2022/07/30 08:29:14;;;;;;;6.75;2.63;;;22.00;97.60;;;;;;4994128;28;20090;-95
2022/07/30 08:31:39;;;;;;;5.90;2.53;;;22.10;97.40;;;;;;4984677;28;20021;-91
2022/07/30 08:34:05;;;;;;;5.40;2.10;;;22.20;97.30;;;;;;4968911;28;20125;-91
2022/07/30 08:36:48;;;;;;;5.65;2.50;;;22.20;97.20;;;;;;4986494;28;20026;-91
2022/07/30 08:40:08;;;;;;;6.20;2.90;;;22.30;97.00;;;;;;5000333;28;20033;-91
2022/07/30 08:42:40;;;;;;;5.10;2.28;;;22.40;96.90;;;;;;4999792;28;20489;-90
2022/07/30 08:45:09;;;;;;;4.80;2.10;;;22.50;96.60;;;;;;5017928;28;20042;-92
2022/07/30 08:47:36;;;;;;;7.90;2.83;;;22.50;96.50;;;;;;4989652;28;20031;-92
2022/07/30 08:50:05;;;;;;;7.82;3.03;;;22.60;96.30;;;;;;4980557;28;20134;-92
2022/07/30 08:52:32;;;;;;;5.43;2.38;;;22.60;96.00;;;;;;4980626;28;20510;-92
2022/07/30 08:54:59;;;;;;;11.30;2.85;;;22.70;95.80;;;;;;5019464;28;20076;-93
2022/07/30 08:57:29;;;;;;;9.45;3.20;;;22.80;95.40;;;;;;4995689;28;20030;-89
2022/07/30 09:00:01;;;;;;;6.43;2.83;;;22.80;94.90;;;;;;4995507;28;20021;-93
2022/07/30 09:02:29;;;;;;;5.88;2.30;;;22.80;94.80;;;;;;4980307;28;20293;-89
2022/07/30 09:04:58;;;;;;;7.07;2.58;;;22.90;94.60;;;;;;4997296;28;20040;-90
2022/07/30 09:07:27;;;;;;;7.30;2.42;;;22.90;94.40;;;;;;4980416;28;20026;-91
2022/07/30 09:10:04;;;;;;;5.28;2.70;;;23.00;94.30;;;;;;4980019;28;20034;-91
2022/07/30 09:12:39;;;;;;;5.20;2.15;;;23.00;93.80;;;;;;4980394;28;20037;-91
2022/07/30 09:18:35;;;;;;;6.00;2.10;;;23.10;93.30;;;;;;4941062;28;20098;-84
2022/07/30 09:21:15;;;;;;;3.35;2.10;;;23.20;93.30;;;;;;4993163;28;20069;-85
2022/07/30 09:23:56;;;;;;;6.38;2.80;;;23.20;92.70;;;;;;4996947;28;20108;-86
2022/07/30 09:26:28;;;;;;;7.32;2.50;;;23.30;92.10;;;;;;4994262;28;20023;-87
2022/07/30 09:28:54;;;;;;;5.70;2.38;;;23.30;91.80;;;;;;4995759;28;20032;-85
2022/07/30 09:31:21;;;;;;;5.35;2.42;;;23.30;91.30;;;;;;4997159;28;20045;-84
2022/07/30 09:33:47;;;;;;;4.57;2.20;;;23.40;91.10;;;;;;4996596;28;20165;-84
2022/07/30 09:36:15;;;;;;;4.55;1.77;;;23.40;90.90;;;;;;4997108;28;20359;-84
2022/07/30 09:38:51;;;;;;;8.45;2.35;;;23.50;91.00;;;;;;4996414;28;20034;-84
2022/07/30 09:41:30;;;;;;;5.88;2.30;;;23.50;91.00;;;;;;4985012;28;20049;-84
2022/07/30 09:43:56;;;;;;;3.97;2.00;;;23.50;90.60;;;;;;4996695;28;20474;-84
2022/07/30 09:46:22;;;;;;;7.05;2.58;;;23.60;90.50;;;;;;4996793;28;20032;-85
2022/07/30 09:48:48;;;;;;;5.63;2.67;;;23.60;90.20;;;;;;4993820;28;20026;-85
2022/07/30 09:51:16;;;;;;;3.78;1.80;;;23.70;90.20;;;;;;4980247;28;20029;-85
2022/07/30 09:53:55;;;;;;;5.03;2.00;;;23.70;90.10;;;;;;5014185;28;20509;-85
2022/07/30 09:56:28;;;;;;;5.38;2.08;;;23.80;90.20;;;;;;5012787;28;20024;-85
2022/07/30 10:09:24;;;;;;;5.70;1.85;;;24.00;88.60;;;;;;4960347;29;20541;-91
2022/07/30 10:11:50;;;;;;;5.32;2.00;;;24.10;88.80;;;;;;4941577;29;20499;-91
2022/07/30 10:14:25;;;;;;;4.82;1.98;;;24.20;88.10;;;;;;4953182;28;20038;-90
2022/07/30 10:16:53;;;;;;;4.28;1.70;;;24.20;85.90;;;;;;4933201;29;20039;-89
2022/07/30 10:19:20;;;;;;;4.35;1.70;;;24.20;85.70;;;;;;4960921;29;20064;-90
2022/07/30 10:21:49;;;;;;;6.53;2.28;;;24.30;85.60;;;;;;4946669;29;20080;-92
2022/07/30 10:24:17;;;;;;;5.05;2.00;;;24.30;84.80;;;;;;4937585;29;20039;-83
2022/07/30 10:26:44;;;;;;;8.40;2.13;;;24.40;83.80;;;;;;4973959;28;20031;-85
2022/07/30 10:29:11;;;;;;;7.00;1.90;;;24.50;83.50;;;;;;4960336;29;20082;-85
2022/07/30 10:31:36;;;;;;;6.60;2.28;;;24.50;83.30;;;;;;4938625;29;20032;-83
2022/07/30 10:34:03;;;;;;;6.45;2.08;;;24.50;83.50;;;;;;4934115;29;20031;-80
2022/07/30 10:36:30;;;;;;;3.83;1.60;;;24.60;83.80;;;;;;4961769;28;20035;-81
2022/07/30 10:38:56;;;;;;;4.05;1.80;;;24.60;84.10;;;;;;4953011;29;20126;-80
2022/07/30 10:41:40;;;;;;;3.63;1.90;;;24.70;83.90;;;;;;4949173;29;20551;-83
2022/07/30 10:44:15;;;;;;;5.63;1.55;;;24.80;83.30;;;;;;4933573;29;20139;-78
2022/07/30 10:46:52;;;;;;;4.70;1.50;;;24.90;82.90;;;;;;4936591;29;20055;-82
2022/07/30 10:49:18;;;;;;;5.50;1.70;;;24.90;82.50;;;;;;4953212;29;20066;-84
2022/07/30 10:51:49;;;;;;;5.60;1.73;;;25.00;81.90;;;;;;4960176;28;20075;-82
2022/07/30 10:54:43;;;;;;;5.78;2.22;;;25.10;81.50;;;;;;4992636;28;20025;-84
2022/07/30 10:57:20;;;;;;;6.03;1.90;;;25.10;80.90;;;;;;4995057;28;20026;-83
2022/07/30 10:59:56;;;;;;;4.47;1.50;;;25.20;80.40;;;;;;4973091;28;20026;-85
2022/07/30 11:02:22;;;;;;;4.55;1.60;;;25.30;80.30;;;;;;4990907;28;20037;-87
2022/07/30 11:04:48;;;;;;;4.63;1.80;;;25.30;80.10;;;;;;4997181;28;20041;-89
2022/07/30 11:07:20;;;;;;;3.75;1.67;;;25.40;79.70;;;;;;4980836;28;20044;-89
2022/07/30 11:09:47;;;;;;;3.65;1.80;;;25.50;79.80;;;;;;4998475;28;20470;-84
2022/07/30 11:12:52;;;;;;;;;;;;;;;;;;;;;
2022/07/30 11:19:23;;;;;;;6.00;1.90;;;25.70;79.00;;;;;;5009487;28;20034;-86
2022/07/30 11:22:30;;;;;;;3.40;1.95;;;25.80;79.10;;;;;;5002325;28;20053;-93
2022/07/30 11:24:56;;;;;;;4.70;2.47;;;25.80;78.70;;;;;;4992642;28;20030;-90
2022/07/30 11:27:47;;;;;;;3.83;1.70;;;25.90;77.80;;;;;;4998268;28;20087;-95
2022/07/30 11:30:16;;;;;;;4.53;2.25;;;25.90;78.20;;;;;;4998886;28;20026;-95
2022/07/30 11:32:46;;;;;;;5.32;2.17;;;26.00;78.30;;;;;;4994035;28;20474;-89
2022/07/30 11:35:27;;;;;;;5.20;2.00;;;26.00;78.10;;;;;;4991289;28;20036;-88
2022/07/30 11:38:06;;;;;;;5.10;2.20;;;26.10;77.60;;;;;;4986199;28;20026;-89
2022/07/30 11:40:43;;;;;;;5.70;2.40;;;26.10;77.50;;;;;;5013499;28;20098;-82
2022/07/30 11:43:19;;;;;;;4.85;2.30;;;26.20;77.90;;;;;;4998296;28;20022;-94
2022/07/30 11:46:07;;;;;;;6.22;2.30;;;26.20;77.90;;;;;;4997926;28;20026;-86
2022/07/30 11:48:34;;;;;;;5.03;2.25;;;26.30;76.60;;;;;;5007422;28;20498;-86
2022/07/30 11:51:00;;;;;;;4.60;2.10;;;26.30;76.50;;;;;;5016255;28;20467;-87
2022/07/30 11:53:26;;;;;;;5.55;2.55;;;26.40;76.70;;;;;;4998237;28;20706;-87
2022/07/30 11:55:58;;;;;;;5.50;2.08;;;26.40;76.20;;;;;;4994850;28;20030;-89
2022/07/30 11:58:38;;;;;;;6.03;2.78;;;26.40;75.80;;;;;;5001890;28;20014;-91
2022/07/30 12:01:15;;;;;;;4.15;2.30;;;26.50;75.90;;;;;;5018389;28;20034;-93
2022/07/30 12:03:46;;;;;;;6.88;2.10;;;26.40;75.60;;;;;;4998705;28;20083;-85
2022/07/30 12:06:18;;;;;;;4.65;1.92;;;26.50;75.70;;;;;;4999320;28;20033;-89
2022/07/30 12:08:51;;;;;;;4.20;2.20;;;26.50;75.90;;;;;;4999071;28;20193;-86
2022/07/30 12:11:17;;;;;;;4.00;2.03;;;26.50;75.60;;;;;;4998763;28;20113;-85
2022/07/30 12:13:53;;;;;;;6.57;2.15;;;26.60;75.20;;;;;;4998817;28;20201;-83
2022/07/30 12:16:19;;;;;;;3.60;1.80;;;26.60;74.90;;;;;;5016162;28;20029;-83
2022/07/30 12:18:46;;;;;;;7.57;2.25;;;26.70;74.90;;;;;;4998614;28;20034;-81
2022/07/30 12:21:14;;;;;;;8.68;1.90;;;26.80;74.90;;;;;;4998972;28;20037;-82
2022/07/30 12:23:42;;;;;;;6.28;2.15;;;26.90;74.80;;;;;;5015868;28;20062;-80
2022/07/30 12:26:18;;;;;;;6.63;2.00;;;27.00;74.30;;;;;;4998473;28;20478;-82
2022/07/30 12:28:45;;;;;;;4.47;2.55;;;27.10;73.70;;;;;;4998193;28;20564;-84
2022/07/30 12:31:14;;;;;;;6.10;1.60;;;27.10;73.30;;;;;;5016147;28;20033;-82
2022/07/30 12:33:40;;;;;;;3.60;1.80;;;27.20;73.30;;;;;;4998373;28;20059;-85
2022/07/30 12:36:07;;;;;;;16.15;2.45;;;27.30;73.10;;;;;;5016392;28;20034;-83
2022/07/30 12:38:44;;;;;;;4.38;1.88;;;27.40;72.30;;;;;;4999187;28;20030;-85
2022/07/30 12:41:13;;;;;;;11.70;2.00;;;27.40;71.50;;;;;;5006893;28;20042;-85
2022/07/30 12:43:51;;;;;;;10.80;2.22;;;27.50;71.20;;;;;;5010407;28;20089;-86
2022/07/30 12:46:23;;;;;;;5.57;1.70;;;27.50;70.80;;;;;;5016046;28;20065;-83
2022/07/30 12:49:03;;;;;;;3.65;1.50;;;27.60;70.80;;;;;;4999610;28;20034;-83
2022/07/30 12:51:32;;;;;;;4.28;1.40;;;27.70;70.10;;;;;;4998629;28;20026;-88
2022/07/30 12:53:59;;;;;;;5.68;1.58;;;27.80;69.80;;;;;;4997577;28;20018;-84
2022/07/30 12:56:27;;;;;;;3.13;1.52;;;27.80;70.30;;;;;;4998740;28;20105;-86
2022/07/30 12:58:55;;;;;;;6.25;1.60;;;27.90;70.60;;;;;;4998196;28;20018;-83
2022/07/30 13:01:40;;;;;;;3.88;1.52;;;27.90;69.70;;;;;;4982108;28;20109;-84
2022/07/30 13:04:07;;;;;;;5.20;1.60;;;27.90;69.30;;;;;;4997471;28;20036;-85
2022/07/30 13:06:32;;;;;;;3.85;1.65;;;28.00;68.80;;;;;;4997857;28;20026;-84
2022/07/30 13:08:59;;;;;;;3.47;1.48;;;28.00;68.40;;;;;;4981696;28;20121;-82
2022/07/30 13:11:43;;;;;;;4.38;1.50;;;28.00;68.90;;;;;;4983904;28;20037;-84
2022/07/30 13:14:11;;;;;;;5.35;1.50;;;28.10;69.00;;;;;;5004162;28;20018;-85
2022/07/30 13:16:38;;;;;;;2.38;1.38;;;28.10;68.80;;;;;;4970555;28;20054;-84
2022/07/30 13:19:06;;;;;;;5.57;1.63;;;28.20;68.70;;;;;;4975607;28;20045;-82
2022/07/30 13:21:33;;;;;;;5.82;1.90;;;28.20;68.20;;;;;;5010184;28;20034;-83
2022/07/30 13:24:00;;;;;;;5.05;1.50;;;28.30;67.20;;;;;;5014647;28;20026;-82
2022/07/30 13:26:28;;;;;;;7.63;1.83;;;28.30;66.60;;;;;;4980969;28;20026;-84
2022/07/30 13:28:54;;;;;;;8.50;2.28;;;28.40;66.00;;;;;;4986786;28;20026;-82
2022/07/30 13:31:24;;;;;;;8.73;1.88;;;28.40;66.40;;;;;;4967341;28;20015;-85
2022/07/30 13:33:50;;;;;;;3.35;1.40;;;28.40;66.10;;;;;;4985679;28;20066;-84
2022/07/30 13:36:16;;;;;;;9.77;2.20;;;28.50;66.60;;;;;;4981459;28;20054;-84
2022/07/30 13:38:43;;;;;;;8.70;2.22;;;28.50;66.40;;;;;;4993904;28;20027;-84
2022/07/30 13:41:08;;;;;;;6.88;1.75;;;28.60;66.10;;;;;;4996873;28;20190;-87
2022/07/30 13:43:34;;;;;;;3.63;1.58;;;28.60;65.90;;;;;;4982454;28;20132;-87
2022/07/30 13:46:04;;;;;;;3.42;1.67;;;28.60;65.30;;;;;;4984055;28;20037;-87
2022/07/30 13:48:31;;;;;;;4.00;1.70;;;28.70;65.00;;;;;;4987829;28;20026;-84
2022/07/30 13:50:59;;;;;;;3.50;1.45;;;28.70;64.20;;;;;;5025108;28;20269;-87
2022/07/30 13:53:25;;;;;;;3.78;1.40;;;28.70;64.50;;;;;;5010514;28;20038;-88
2022/07/30 13:55:50;;;;;;;4.88;2.00;;;28.80;65.30;;;;;;4975448;28;20097;-85
2022/07/30 13:58:16;;;;;;;64.25;4.88;;;28.80;65.40;;;;;;4988047;28;20033;-88
2022/07/30 14:01:05;;;;;;;7.18;1.60;;;28.80;65.20;;;;;;4992725;28;20060;-86
2022/07/30 14:03:31;;;;;;;4.53;1.77;;;28.80;65.70;;;;;;4998543;28;20037;-88
2022/07/30 14:05:57;;;;;;;5.68;1.90;;;28.90;66.00;;;;;;5013693;28;20800;-88
2022/07/30 14:08:24;;;;;;;4.40;1.60;;;29.00;66.10;;;;;;4980811;28;20021;-86
2022/07/30 14:10:49;;;;;;;13.80;1.95;;;29.00;65.20;;;;;;4998620;28;20081;-88
2022/07/30 14:13:15;;;;;;;3.08;1.70;;;29.00;64.60;;;;;;5000092;28;20116;-87
2022/07/30 14:15:43;;;;;;;3.85;1.60;;;29.00;64.30;;;;;;4984258;28;20029;-85
2022/07/30 14:18:12;;;;;;;6.85;1.50;;;29.00;64.20;;;;;;5000660;28;20030;-89
2022/07/30 14:20:38;;;;;;;3.67;1.45;;;29.00;63.70;;;;;;5002097;28;20478;-85
2022/07/30 14:23:06;;;;;;;4.55;1.60;;;29.00;63.80;;;;;;4989151;28;20033;-87
2022/07/30 14:25:35;;;;;;;3.42;1.80;;;29.00;63.20;;;;;;4994873;28;20065;-86
2022/07/30 14:28:01;;;;;;;2.05;1.50;;;29.00;63.30;;;;;;4997472;28;20109;-87
2022/07/30 14:30:26;;;;;;;5.28;1.65;;;29.00;63.10;;;;;;4987783;28;20056;-87
2022/07/30 14:32:52;;;;;;;4.68;1.65;;;29.00;63.40;;;;;;4963326;28;20415;-87
2022/07/30 14:35:20;;;;;;;2.97;1.38;;;29.00;63.20;;;;;;4994195;28;20359;-87
2022/07/30 14:37:46;;;;;;;4.05;1.80;;;29.00;62.60;;;;;;4988083;28;20023;-88
2022/07/30 14:40:12;;;;;;;2.97;1.40;;;28.90;62.40;;;;;;4986661;28;20038;-83
2022/07/30 14:42:39;;;;;;;2.83;1.33;;;28.90;62.30;;;;;;4994491;28;20106;-87
2022/07/30 14:45:14;;;;;;;5.22;1.85;;;28.80;61.70;;;;;;4997178;28;20032;-90
2022/07/30 14:47:42;;;;;;;3.05;1.50;;;28.80;61.20;;;;;;5018246;28;20093;-89
2022/07/30 14:50:08;;;;;;;4.30;1.65;;;28.80;60.20;;;;;;4997213;28;20029;-90
2022/07/30 14:52:37;;;;;;;3.05;1.50;;;28.70;60.10;;;;;;4996180;28;20040;-91
2022/07/30 14:55:05;;;;;;;4.15;1.58;;;28.60;61.20;;;;;;4981476;28;20074;-89
2022/07/30 14:57:31;;;;;;;4.22;1.48;;;28.60;59.50;;;;;;4988751;28;20152;-88
2022/07/30 14:59:57;;;;;;;4.95;2.42;;;28.50;60.20;;;;;;4996747;28;20030;-89
2022/07/30 15:02:22;;;;;;;4.53;2.10;;;28.60;61.10;;;;;;5012441;28;20025;-89
2022/07/30 15:04:48;;;;;;;4.82;2.20;;;28.50;61.20;;;;;;4980807;28;20397;-90
2022/07/30 15:07:14;;;;;;;7.45;5.15;;;28.60;61.40;;;;;;4991703;28;20033;-88
2022/07/30 15:09:40;;;;;;;8.38;2.72;;;28.60;61.10;;;;;;4997226;28;20034;-90